sensor_id;sensor_type;location;lat;lon;timestamp;temperature;humidity
21481;DHT22;10902;48.158;8.634;2022-12-29T00:02:03;5.60;99.90
21481;DHT22;10902;48.158;8.634;2022-12-29T00:04:28;5.60;99.90
21481;DHT22;10902;48.158;8.634;2022-12-29T00:06:54;5.60;99.90
21481;DHT22;10902;48.158;8.634;2022-12-29T00:09:19;5.60;99.90
21481;DHT22;10902;48.158;8.634;2022-12-29T00:11:45;5.60;99.90
21481;DHT22;10902;48.158;8.634;2022-12-29T00:14:11;5.60;99.90
21481;DHT22;10902;48.158;8.634;2022-12-29T00:16:56;5.60;99.90
21481;DHT22;10902;48.158;8.634;2022-12-29T00:19:22;5.70;99.90
21481;DHT22;10902;48.158;8.634;2022-12-29T00:22:10;5.70;99.90
21481;DHT22;10902;48.158;8.634;2022-12-29T00:24:55;5.70;99.90
21481;DHT22;10902;48.158;8.634;2022-12-29T00:27:27;5.70;99.90
21481;DHT22;10902;48.158;8.634;2022-12-29T00:30:17;5.70;99.90
21481;DHT22;10902;48.158;8.634;2022-12-29T00:33:12;5.70;99.90
21481;DHT22;10902;48.158;8.634;2022-12-29T00:38:28;5.80;99.90
21481;DHT22;10902;48.158;8.634;2022-12-29T00:41:13;5.80;99.90
21481;DHT22;10902;48.158;8.634;2022-12-29T00:43:57;5.90;99.90
21481;DHT22;10902;48.158;8.634;2022-12-29T00:46:38;5.80;99.90
21481;DHT22;10902;48.158;8.634;2022-12-29T00:49:05;5.90;99.90
21481;DHT22;10902;48.158;8.634;2022-12-29T00:51:50;5.90;99.90
21481;DHT22;10902;48.158;8.634;2022-12-29T00:54:16;6.00;99.90
21481;DHT22;10902;48.158;8.634;2022-12-29T00:56:41;5.90;99.90
21481;DHT22;10902;48.158;8.634;2022-12-29T00:59:09;6.00;99.90
21481;DHT22;10902;48.158;8.634;2022-12-29T01:01:36;6.00;99.90
21481;DHT22;10902;48.158;8.634;2022-12-29T01:04:02;6.00;99.90
21481;DHT22;10902;48.158;8.634;2022-12-29T01:06:28;6.10;99.90
21481;DHT22;10902;48.158;8.634;2022-12-29T01:08:54;6.10;99.90
21481;DHT22;10902;48.158;8.634;2022-12-29T01:11:39;6.10;99.90
21481;DHT22;10902;48.158;8.634;2022-12-29T01:14:05;6.10;99.90
21481;DHT22;10902;48.158;8.634;2022-12-29T01:16:31;6.00;99.90
21481;DHT22;10902;48.158;8.634;2022-12-29T01:18:57;6.00;99.90
21481;DHT22;10902;48.158;8.634;2022-12-29T01:21:23;6.00;99.90
21481;DHT22;10902;48.158;8.634;2022-12-29T01:23:48;5.90;99.90
21481;DHT22;10902;48.158;8.634;2022-12-29T01:26:16;6.00;99.90
21481;DHT22;10902;48.158;8.634;2022-12-29T01:28:42;6.00;99.90
21481;DHT22;10902;48.158;8.634;2022-12-29T01:31:09;6.00;99.90
21481;DHT22;10902;48.158;8.634;2022-12-29T01:33:34;6.00;99.90
21481;DHT22;10902;48.158;8.634;2022-12-29T01:36:01;6.20;99.90
21481;DHT22;10902;48.158;8.634;2022-12-29T01:38:27;6.30;99.90
21481;DHT22;10902;48.158;8.634;2022-12-29T01:40:53;6.40;99.90
21481;DHT22;10902;48.158;8.634;2022-12-29T01:43:18;6.50;99.90
21481;DHT22;10902;48.158;8.634;2022-12-29T01:45:48;6.60;99.90
21481;DHT22;10902;48.158;8.634;2022-12-29T01:48:16;6.70;99.90
21481;DHT22;10902;48.158;8.634;2022-12-29T01:50:49;6.60;99.90
21481;DHT22;10902;48.158;8.634;2022-12-29T01:53:18;6.70;99.90
21481;DHT22;10902;48.158;8.634;2022-12-29T01:55:49;6.60;99.90
21481;DHT22;10902;48.158;8.634;2022-12-29T01:58:19;6.70;99.90
21481;DHT22;10902;48.158;8.634;2022-12-29T02:00:45;6.70;99.90
21481;DHT22;10902;48.158;8.634;2022-12-29T02:03:11;6.60;99.90
21481;DHT22;10902;48.158;8.634;2022-12-29T02:05:42;6.50;99.90
21481;DHT22;10902;48.158;8.634;2022-12-29T02:08:11;6.40;99.90
21481;DHT22;10902;48.158;8.634;2022-12-29T02:10:39;6.30;99.90
21481;DHT22;10902;48.158;8.634;2022-12-29T02:13:06;6.60;99.90
21481;DHT22;10902;48.158;8.634;2022-12-29T02:15:51;6.50;99.90
21481;DHT22;10902;48.158;8.634;2022-12-29T02:21:18;6.10;99.90
21481;DHT22;10902;48.158;8.634;2022-12-29T02:27:01;6.50;99.90
21481;DHT22;10902;48.158;8.634;2022-12-29T02:29:40;6.70;99.90
21481;DHT22;10902;48.158;8.634;2022-12-29T02:48:10;7.10;99.90
21481;DHT22;10902;48.158;8.634;2022-12-29T02:51:01;7.30;99.90
21481;DHT22;10902;48.158;8.634;2022-12-29T02:53:28;7.30;99.90
21481;DHT22;10902;48.158;8.634;2022-12-29T02:56:14;7.40;99.90
21481;DHT22;10902;48.158;8.634;2022-12-29T02:58:39;7.40;99.90
21481;DHT22;10902;48.158;8.634;2022-12-29T03:03:51;7.30;99.90
21481;DHT22;10902;48.158;8.634;2022-12-29T03:06:43;7.30;99.90
21481;DHT22;10902;48.158;8.634;2022-12-29T03:09:50;7.30;99.90
21481;DHT22;10902;48.158;8.634;2022-12-29T03:12:39;7.30;99.90
21481;DHT22;10902;48.158;8.634;2022-12-29T03:15:41;7.30;99.90
21481;DHT22;10902;48.158;8.634;2022-12-29T03:18:51;7.30;99.90
21481;DHT22;10902;48.158;8.634;2022-12-29T03:21:43;7.50;99.90
21481;DHT22;10902;48.158;8.634;2022-12-29T03:24:36;7.60;99.90
21481;DHT22;10902;48.158;8.634;2022-12-29T03:27:05;7.80;99.90
21481;DHT22;10902;48.158;8.634;2022-12-29T03:29:36;7.80;99.90
21481;DHT22;10902;48.158;8.634;2022-12-29T03:32:05;7.80;99.90
21481;DHT22;10902;48.158;8.634;2022-12-29T03:34:33;7.60;99.90
21481;DHT22;10902;48.158;8.634;2022-12-29T03:37:15;7.70;99.90
21481;DHT22;10902;48.158;8.634;2022-12-29T03:39:42;7.80;99.90
21481;DHT22;10902;48.158;8.634;2022-12-29T03:42:13;7.80;99.90
21481;DHT22;10902;48.158;8.634;2022-12-29T03:44:41;7.80;99.90
21481;DHT22;10902;48.158;8.634;2022-12-29T03:47:09;7.90;99.90
21481;DHT22;10902;48.158;8.634;2022-12-29T03:49:35;7.80;99.90
21481;DHT22;10902;48.158;8.634;2022-12-29T03:52:00;7.80;99.90
21481;DHT22;10902;48.158;8.634;2022-12-29T03:54:26;7.70;99.90
21481;DHT22;10902;48.158;8.634;2022-12-29T03:56:52;7.60;99.90
21481;DHT22;10902;48.158;8.634;2022-12-29T03:59:17;7.50;99.90
21481;DHT22;10902;48.158;8.634;2022-12-29T04:01:43;7.40;99.90
21481;DHT22;10902;48.158;8.634;2022-12-29T04:04:08;7.40;99.90
21481;DHT22;10902;48.158;8.634;2022-12-29T04:06:34;7.40;99.90
21481;DHT22;10902;48.158;8.634;2022-12-29T04:09:00;7.50;99.90
21481;DHT22;10902;48.158;8.634;2022-12-29T04:11:25;7.60;99.90
21481;DHT22;10902;48.158;8.634;2022-12-29T04:13:51;7.70;99.90
21481;DHT22;10902;48.158;8.634;2022-12-29T04:16:16;7.80;99.90
21481;DHT22;10902;48.158;8.634;2022-12-29T04:18:42;7.80;99.90
21481;DHT22;10902;48.158;8.634;2022-12-29T04:21:08;7.70;99.90
21481;DHT22;10902;48.158;8.634;2022-12-29T04:23:35;7.80;99.90
21481;DHT22;10902;48.158;8.634;2022-12-29T04:26:02;7.80;99.90
21481;DHT22;10902;48.158;8.634;2022-12-29T04:28:28;7.90;99.90
21481;DHT22;10902;48.158;8.634;2022-12-29T04:30:54;8.00;99.90
21481;DHT22;10902;48.158;8.634;2022-12-29T04:33:20;8.10;99.90
21481;DHT22;10902;48.158;8.634;2022-12-29T04:35:46;8.10;99.90
21481;DHT22;10902;48.158;8.634;2022-12-29T04:38:12;8.20;99.90
21481;DHT22;10902;48.158;8.634;2022-12-29T04:40:39;8.20;99.90
21481;DHT22;10902;48.158;8.634;2022-12-29T04:43:06;8.20;99.90
21481;DHT22;10902;48.158;8.634;2022-12-29T04:45:32;8.10;99.90
21481;DHT22;10902;48.158;8.634;2022-12-29T04:47:57;8.20;99.90
21481;DHT22;10902;48.158;8.634;2022-12-29T04:50:23;8.10;99.90
21481;DHT22;10902;48.158;8.634;2022-12-29T04:52:48;8.00;99.90
21481;DHT22;10902;48.158;8.634;2022-12-29T04:55:14;8.10;99.90
21481;DHT22;10902;48.158;8.634;2022-12-29T04:57:39;8.10;99.90
21481;DHT22;10902;48.158;8.634;2022-12-29T05:00:06;8.00;99.90
21481;DHT22;10902;48.158;8.634;2022-12-29T05:02:32;8.10;99.90
21481;DHT22;10902;48.158;8.634;2022-12-29T05:04:57;8.00;99.90
21481;DHT22;10902;48.158;8.634;2022-12-29T05:07:23;8.10;99.90
21481;DHT22;10902;48.158;8.634;2022-12-29T05:09:48;8.10;99.90
21481;DHT22;10902;48.158;8.634;2022-12-29T05:12:14;8.10;99.90
21481;DHT22;10902;48.158;8.634;2022-12-29T05:14:39;8.20;99.90
21481;DHT22;10902;48.158;8.634;2022-12-29T05:17:05;8.30;99.90
21481;DHT22;10902;48.158;8.634;2022-12-29T05:19:30;8.40;99.90
21481;DHT22;10902;48.158;8.634;2022-12-29T05:21:56;8.40;99.90
21481;DHT22;10902;48.158;8.634;2022-12-29T05:24:22;8.50;99.90
21481;DHT22;10902;48.158;8.634;2022-12-29T05:26:47;8.50;99.90
21481;DHT22;10902;48.158;8.634;2022-12-29T05:29:13;8.50;99.90
21481;DHT22;10902;48.158;8.634;2022-12-29T05:31:39;8.50;99.90
21481;DHT22;10902;48.158;8.634;2022-12-29T05:34:04;8.40;99.90
21481;DHT22;10902;48.158;8.634;2022-12-29T05:36:30;8.40;99.90
21481;DHT22;10902;48.158;8.634;2022-12-29T05:38:56;8.30;99.90
21481;DHT22;10902;48.158;8.634;2022-12-29T05:41:21;8.30;99.90
21481;DHT22;10902;48.158;8.634;2022-12-29T05:43:47;8.30;99.90
21481;DHT22;10902;48.158;8.634;2022-12-29T05:46:13;8.40;99.90
21481;DHT22;10902;48.158;8.634;2022-12-29T05:48:38;8.30;99.90
21481;DHT22;10902;48.158;8.634;2022-12-29T05:51:04;8.40;99.90
21481;DHT22;10902;48.158;8.634;2022-12-29T05:53:29;8.30;99.90
21481;DHT22;10902;48.158;8.634;2022-12-29T05:55:55;8.20;99.90
21481;DHT22;10902;48.158;8.634;2022-12-29T05:58:21;8.10;99.90
21481;DHT22;10902;48.158;8.634;2022-12-29T06:00:46;8.00;99.90
21481;DHT22;10902;48.158;8.634;2022-12-29T06:03:12;8.10;99.90
21481;DHT22;10902;48.158;8.634;2022-12-29T06:05:37;8.30;99.90
21481;DHT22;10902;48.158;8.634;2022-12-29T06:08:03;8.30;99.90
21481;DHT22;10902;48.158;8.634;2022-12-29T06:10:29;8.20;99.90
21481;DHT22;10902;48.158;8.634;2022-12-29T06:12:54;8.20;99.90
21481;DHT22;10902;48.158;8.634;2022-12-29T06:15:20;8.20;99.90
21481;DHT22;10902;48.158;8.634;2022-12-29T06:17:45;8.20;99.90
21481;DHT22;10902;48.158;8.634;2022-12-29T06:20:11;8.10;99.90
21481;DHT22;10902;48.158;8.634;2022-12-29T06:22:37;8.20;99.90
21481;DHT22;10902;48.158;8.634;2022-12-29T06:25:03;8.30;99.90
21481;DHT22;10902;48.158;8.634;2022-12-29T06:27:30;8.30;99.90
21481;DHT22;10902;48.158;8.634;2022-12-29T06:29:56;8.30;99.90
21481;DHT22;10902;48.158;8.634;2022-12-29T06:32:22;8.40;99.90
21481;DHT22;10902;48.158;8.634;2022-12-29T06:34:48;8.40;99.90
21481;DHT22;10902;48.158;8.634;2022-12-29T06:37:13;8.30;99.90
21481;DHT22;10902;48.158;8.634;2022-12-29T06:39:40;8.20;99.90
21481;DHT22;10902;48.158;8.634;2022-12-29T06:42:05;8.20;99.90
21481;DHT22;10902;48.158;8.634;2022-12-29T06:44:31;8.20;99.90
21481;DHT22;10902;48.158;8.634;2022-12-29T06:46:56;8.20;99.90
21481;DHT22;10902;48.158;8.634;2022-12-29T06:49:22;8.10;99.90
21481;DHT22;10902;48.158;8.634;2022-12-29T06:51:48;8.20;99.90
21481;DHT22;10902;48.158;8.634;2022-12-29T06:54:14;8.10;99.90
21481;DHT22;10902;48.158;8.634;2022-12-29T06:56:39;8.00;99.90
21481;DHT22;10902;48.158;8.634;2022-12-29T06:59:05;7.90;99.90
21481;DHT22;10902;48.158;8.634;2022-12-29T07:01:31;7.80;99.90
21481;DHT22;10902;48.158;8.634;2022-12-29T07:03:57;7.70;99.90
21481;DHT22;10902;48.158;8.634;2022-12-29T07:06:23;7.80;99.90
21481;DHT22;10902;48.158;8.634;2022-12-29T07:08:48;7.80;99.90
21481;DHT22;10902;48.158;8.634;2022-12-29T07:11:14;7.90;99.90
21481;DHT22;10902;48.158;8.634;2022-12-29T07:13:40;7.90;99.90
21481;DHT22;10902;48.158;8.634;2022-12-29T07:16:09;7.80;99.90
21481;DHT22;10902;48.158;8.634;2022-12-29T07:18:35;7.70;99.90
21481;DHT22;10902;48.158;8.634;2022-12-29T07:21:01;7.70;99.90
21481;DHT22;10902;48.158;8.634;2022-12-29T07:23:27;7.80;99.90
21481;DHT22;10902;48.158;8.634;2022-12-29T07:26:06;7.70;99.90
21481;DHT22;10902;48.158;8.634;2022-12-29T07:28:33;7.70;99.90
21481;DHT22;10902;48.158;8.634;2022-12-29T07:31:02;7.70;99.90
21481;DHT22;10902;48.158;8.634;2022-12-29T07:33:29;7.80;99.90
21481;DHT22;10902;48.158;8.634;2022-12-29T07:35:55;7.80;99.90
21481;DHT22;10902;48.158;8.634;2022-12-29T07:38:20;7.80;99.90
21481;DHT22;10902;48.158;8.634;2022-12-29T07:40:46;7.90;99.90
21481;DHT22;10902;48.158;8.634;2022-12-29T07:43:11;7.90;99.90
21481;DHT22;10902;48.158;8.634;2022-12-29T07:45:37;8.00;99.90
21481;DHT22;10902;48.158;8.634;2022-12-29T07:48:04;8.10;99.90
21481;DHT22;10902;48.158;8.634;2022-12-29T07:50:31;8.10;99.90
21481;DHT22;10902;48.158;8.634;2022-12-29T07:52:56;8.10;99.90
21481;DHT22;10902;48.158;8.634;2022-12-29T07:55:22;8.20;99.90
21481;DHT22;10902;48.158;8.634;2022-12-29T07:57:47;8.20;99.90
21481;DHT22;10902;48.158;8.634;2022-12-29T08:00:13;8.30;99.90
21481;DHT22;10902;48.158;8.634;2022-12-29T08:02:39;8.30;99.90
21481;DHT22;10902;48.158;8.634;2022-12-29T08:05:05;8.20;99.90
21481;DHT22;10902;48.158;8.634;2022-12-29T08:07:31;8.10;99.90
21481;DHT22;10902;48.158;8.634;2022-12-29T08:09:56;8.10;99.90
21481;DHT22;10902;48.158;8.634;2022-12-29T08:12:23;8.00;99.90
21481;DHT22;10902;48.158;8.634;2022-12-29T08:14:48;8.00;99.90
21481;DHT22;10902;48.158;8.634;2022-12-29T08:17:14;8.10;99.90
21481;DHT22;10902;48.158;8.634;2022-12-29T08:19:39;8.10;99.90
21481;DHT22;10902;48.158;8.634;2022-12-29T08:22:06;8.20;99.90
21481;DHT22;10902;48.158;8.634;2022-12-29T08:24:32;8.30;99.90
21481;DHT22;10902;48.158;8.634;2022-12-29T08:26:57;8.40;99.90
21481;DHT22;10902;48.158;8.634;2022-12-29T08:29:23;8.20;99.90
21481;DHT22;10902;48.158;8.634;2022-12-29T08:31:48;8.20;99.90
21481;DHT22;10902;48.158;8.634;2022-12-29T08:34:14;8.10;99.90
21481;DHT22;10902;48.158;8.634;2022-12-29T08:36:39;8.10;99.90
21481;DHT22;10902;48.158;8.634;2022-12-29T08:39:05;8.00;99.90
21481;DHT22;10902;48.158;8.634;2022-12-29T08:41:31;7.80;99.90
21481;DHT22;10902;48.158;8.634;2022-12-29T08:43:57;7.70;99.90
21481;DHT22;10902;48.158;8.634;2022-12-29T08:46:22;7.60;99.90
21481;DHT22;10902;48.158;8.634;2022-12-29T08:48:48;7.60;99.90
21481;DHT22;10902;48.158;8.634;2022-12-29T08:51:13;7.40;99.90
21481;DHT22;10902;48.158;8.634;2022-12-29T08:53:39;7.40;99.90
21481;DHT22;10902;48.158;8.634;2022-12-29T08:56:05;7.40;99.90
21481;DHT22;10902;48.158;8.634;2022-12-29T08:58:31;7.40;99.90
21481;DHT22;10902;48.158;8.634;2022-12-29T09:00:57;7.50;99.90
21481;DHT22;10902;48.158;8.634;2022-12-29T09:03:24;7.70;99.90
21481;DHT22;10902;48.158;8.634;2022-12-29T09:05:51;7.80;99.90
21481;DHT22;10902;48.158;8.634;2022-12-29T09:08:17;8.00;99.90
21481;DHT22;10902;48.158;8.634;2022-12-29T09:10:43;8.00;99.90
21481;DHT22;10902;48.158;8.634;2022-12-29T09:13:10;8.00;99.90
21481;DHT22;10902;48.158;8.634;2022-12-29T09:15:35;8.00;99.90
21481;DHT22;10902;48.158;8.634;2022-12-29T09:18:01;8.10;99.90
21481;DHT22;10902;48.158;8.634;2022-12-29T09:20:26;8.20;99.90
21481;DHT22;10902;48.158;8.634;2022-12-29T09:22:52;8.20;99.90
21481;DHT22;10902;48.158;8.634;2022-12-29T09:25:18;8.20;99.90
21481;DHT22;10902;48.158;8.634;2022-12-29T09:27:43;8.30;99.90
21481;DHT22;10902;48.158;8.634;2022-12-29T09:30:11;8.30;99.90
21481;DHT22;10902;48.158;8.634;2022-12-29T09:32:37;8.40;99.90
21481;DHT22;10902;48.158;8.634;2022-12-29T09:35:03;8.50;99.90
21481;DHT22;10902;48.158;8.634;2022-12-29T09:37:29;8.50;99.90
21481;DHT22;10902;48.158;8.634;2022-12-29T09:39:55;8.70;99.90
21481;DHT22;10902;48.158;8.634;2022-12-29T09:47:30;8.70;99.90
21481;DHT22;10902;48.158;8.634;2022-12-29T09:50:03;8.70;99.90
21481;DHT22;10902;48.158;8.634;2022-12-29T09:52:34;8.70;99.90
21481;DHT22;10902;48.158;8.634;2022-12-29T09:55:15;8.60;99.90
21481;DHT22;10902;48.158;8.634;2022-12-29T09:58:00;8.60;99.90
21481;DHT22;10902;48.158;8.634;2022-12-29T10:00:41;8.60;99.90
21481;DHT22;10902;48.158;8.634;2022-12-29T10:03:19;8.60;99.90
21481;DHT22;10902;48.158;8.634;2022-12-29T10:08:54;8.60;99.90
21481;DHT22;10902;48.158;8.634;2022-12-29T10:16:44;8.60;99.90
21481;DHT22;10902;48.158;8.634;2022-12-29T10:22:08;8.60;99.90
21481;DHT22;10902;48.158;8.634;2022-12-29T10:24:38;8.60;99.90
21481;DHT22;10902;48.158;8.634;2022-12-29T10:27:10;8.40;99.90
21481;DHT22;10902;48.158;8.634;2022-12-29T10:29:40;8.30;99.90
21481;DHT22;10902;48.158;8.634;2022-12-29T10:32:43;8.10;99.90
21481;DHT22;10902;48.158;8.634;2022-12-29T10:35:26;8.00;99.90
21481;DHT22;10902;48.158;8.634;2022-12-29T10:37:59;8.00;99.90
21481;DHT22;10902;48.158;8.634;2022-12-29T10:40:36;8.00;99.90
21481;DHT22;10902;48.158;8.634;2022-12-29T10:43:12;8.10;99.90
21481;DHT22;10902;48.158;8.634;2022-12-29T10:45:42;8.10;99.90
21481;DHT22;10902;48.158;8.634;2022-12-29T10:48:22;8.10;99.90
21481;DHT22;10902;48.158;8.634;2022-12-29T10:50:50;8.20;99.90
21481;DHT22;10902;48.158;8.634;2022-12-29T10:53:22;8.20;99.90
21481;DHT22;10902;48.158;8.634;2022-12-29T10:55:49;8.30;99.90
21481;DHT22;10902;48.158;8.634;2022-12-29T10:58:15;8.30;99.90
21481;DHT22;10902;48.158;8.634;2022-12-29T11:00:43;8.20;99.90
21481;DHT22;10902;48.158;8.634;2022-12-29T11:08:35;8.00;99.90
21481;DHT22;10902;48.158;8.634;2022-12-29T11:11:09;7.90;99.90
21481;DHT22;10902;48.158;8.634;2022-12-29T11:13:48;8.00;99.90
21481;DHT22;10902;48.158;8.634;2022-12-29T11:16:14;8.00;99.90
21481;DHT22;10902;48.158;8.634;2022-12-29T11:18:40;8.10;99.90
21481;DHT22;10902;48.158;8.634;2022-12-29T11:21:34;8.00;99.90
21481;DHT22;10902;48.158;8.634;2022-12-29T11:24:18;8.00;99.90
21481;DHT22;10902;48.158;8.634;2022-12-29T11:26:44;8.00;99.90
21481;DHT22;10902;48.158;8.634;2022-12-29T11:29:21;8.00;99.90
21481;DHT22;10902;48.158;8.634;2022-12-29T11:31:49;7.90;99.90
21481;DHT22;10902;48.158;8.634;2022-12-29T11:34:30;7.90;99.90
21481;DHT22;10902;48.158;8.634;2022-12-29T11:37:03;7.90;99.90
21481;DHT22;10902;48.158;8.634;2022-12-29T11:42:52;8.00;99.90
21481;DHT22;10902;48.158;8.634;2022-12-29T11:45:22;8.20;99.90
21481;DHT22;10902;48.158;8.634;2022-12-29T11:47:56;8.40;99.90
21481;DHT22;10902;48.158;8.634;2022-12-29T11:50:29;8.50;99.90
21481;DHT22;10902;48.158;8.634;2022-12-29T11:53:13;8.60;99.90
21481;DHT22;10902;48.158;8.634;2022-12-29T11:55:39;8.40;99.90
21481;DHT22;10902;48.158;8.634;2022-12-29T11:58:05;8.40;99.90
21481;DHT22;10902;48.158;8.634;2022-12-29T12:00:34;8.50;99.90
21481;DHT22;10902;48.158;8.634;2022-12-29T12:03:05;8.50;99.90
21481;DHT22;10902;48.158;8.634;2022-12-29T12:08:37;8.60;99.90
21481;DHT22;10902;48.158;8.634;2022-12-29T12:13:59;8.80;99.90
21481;DHT22;10902;48.158;8.634;2022-12-29T12:16:39;8.90;99.90
21481;DHT22;10902;48.158;8.634;2022-12-29T12:19:19;9.00;99.90
21481;DHT22;10902;48.158;8.634;2022-12-29T12:21:52;8.90;99.90
21481;DHT22;10902;48.158;8.634;2022-12-29T12:24:35;9.00;99.90
21481;DHT22;10902;48.158;8.634;2022-12-29T12:29:41;9.30;99.90
21481;DHT22;10902;48.158;8.634;2022-12-29T12:34:43;9.60;99.90
21481;DHT22;10902;48.158;8.634;2022-12-29T12:39:47;9.90;99.90
21481;DHT22;10902;48.158;8.634;2022-12-29T12:46:03;10.00;99.90
21481;DHT22;10902;48.158;8.634;2022-12-29T13:00:11;10.20;99.90
21481;DHT22;10902;48.158;8.634;2022-12-29T13:05:25;10.10;99.90
21481;DHT22;10902;48.158;8.634;2022-12-29T13:10:41;10.10;99.90
21481;DHT22;10902;48.158;8.634;2022-12-29T13:21:57;10.00;99.90
21481;DHT22;10902;48.158;8.634;2022-12-29T13:37:37;10.30;99.90
21481;DHT22;10902;48.158;8.634;2022-12-29T13:45:22;10.60;99.90
21481;DHT22;10902;48.158;8.634;2022-12-29T13:47:36;10.70;99.90
21481;DHT22;10902;48.158;8.634;2022-12-29T15:00:35;9.60;99.90
21481;DHT22;10902;48.158;8.634;2022-12-29T15:03:14;9.40;99.90
21481;DHT22;10902;48.158;8.634;2022-12-29T15:09:46;9.10;99.90
21481;DHT22;10902;48.158;8.634;2022-12-29T15:46:12;8.40;99.90
21481;DHT22;10902;48.158;8.634;2022-12-29T15:48:45;8.40;99.90
21481;DHT22;10902;48.158;8.634;2022-12-29T15:57:45;8.60;99.90
21481;DHT22;10902;48.158;8.634;2022-12-29T16:00:59;8.60;99.90
21481;DHT22;10902;48.158;8.634;2022-12-29T16:03:27;8.50;99.90
21481;DHT22;10902;48.158;8.634;2022-12-29T16:06:31;8.40;99.90
21481;DHT22;10902;48.158;8.634;2022-12-29T16:12:45;8.20;99.90
21481;DHT22;10902;48.158;8.634;2022-12-29T16:15:32;8.00;99.90
21481;DHT22;10902;48.158;8.634;2022-12-29T16:21:27;7.90;99.90
21481;DHT22;10902;48.158;8.634;2022-12-29T16:24:15;7.90;99.90
21481;DHT22;10902;48.158;8.634;2022-12-29T16:26:47;7.90;99.90
21481;DHT22;10902;48.158;8.634;2022-12-29T16:29:14;8.00;99.90
21481;DHT22;10902;48.158;8.634;2022-12-29T16:31:56;8.00;99.90
21481;DHT22;10902;48.158;8.634;2022-12-29T16:34:33;8.10;99.90
21481;DHT22;10902;48.158;8.634;2022-12-29T16:37:03;8.10;99.90
21481;DHT22;10902;48.158;8.634;2022-12-29T16:39:30;8.20;99.90
21481;DHT22;10902;48.158;8.634;2022-12-29T16:41:57;8.20;99.90
21481;DHT22;10902;48.158;8.634;2022-12-29T16:44:25;8.40;99.90
21481;DHT22;10902;48.158;8.634;2022-12-29T16:47:00;8.50;99.90
21481;DHT22;10902;48.158;8.634;2022-12-29T16:49:27;8.50;99.90
21481;DHT22;10902;48.158;8.634;2022-12-29T16:51:53;8.60;99.90
21481;DHT22;10902;48.158;8.634;2022-12-29T16:54:28;8.60;99.90
21481;DHT22;10902;48.158;8.634;2022-12-29T16:56:55;8.30;99.90
21481;DHT22;10902;48.158;8.634;2022-12-29T16:59:33;8.20;99.90
21481;DHT22;10902;48.158;8.634;2022-12-29T17:02:00;8.20;99.90
21481;DHT22;10902;48.158;8.634;2022-12-29T17:04:29;8.20;99.90
21481;DHT22;10902;48.158;8.634;2022-12-29T17:06:55;8.10;99.90
21481;DHT22;10902;48.158;8.634;2022-12-29T17:09:26;8.10;99.90
21481;DHT22;10902;48.158;8.634;2022-12-29T17:11:54;8.10;99.90
21481;DHT22;10902;48.158;8.634;2022-12-29T17:14:40;8.00;99.90
21481;DHT22;10902;48.158;8.634;2022-12-29T17:17:43;7.80;99.90
21481;DHT22;10902;48.158;8.634;2022-12-29T17:20:21;7.80;99.90
21481;DHT22;10902;48.158;8.634;2022-12-29T17:22:47;7.80;99.90
21481;DHT22;10902;48.158;8.634;2022-12-29T17:25:15;7.80;99.90
21481;DHT22;10902;48.158;8.634;2022-12-29T17:27:45;7.80;99.90
21481;DHT22;10902;48.158;8.634;2022-12-29T17:30:19;7.80;99.90
21481;DHT22;10902;48.158;8.634;2022-12-29T17:32:52;7.80;99.90
21481;DHT22;10902;48.158;8.634;2022-12-29T17:35:20;8.00;99.90
21481;DHT22;10902;48.158;8.634;2022-12-29T17:37:46;8.00;99.90
21481;DHT22;10902;48.158;8.634;2022-12-29T17:40:17;8.00;99.90
21481;DHT22;10902;48.158;8.634;2022-12-29T17:42:48;8.00;99.90
21481;DHT22;10902;48.158;8.634;2022-12-29T17:45:27;8.00;99.90
21481;DHT22;10902;48.158;8.634;2022-12-29T17:47:54;8.00;99.90
21481;DHT22;10902;48.158;8.634;2022-12-29T17:50:23;7.90;99.90
21481;DHT22;10902;48.158;8.634;2022-12-29T17:52:52;7.90;99.90
21481;DHT22;10902;48.158;8.634;2022-12-29T17:55:21;7.80;99.90
21481;DHT22;10902;48.158;8.634;2022-12-29T17:57:47;7.70;99.90
21481;DHT22;10902;48.158;8.634;2022-12-29T18:00:37;7.70;99.90
21481;DHT22;10902;48.158;8.634;2022-12-29T18:03:02;7.80;99.90
21481;DHT22;10902;48.158;8.634;2022-12-29T18:05:29;7.70;99.90
21481;DHT22;10902;48.158;8.634;2022-12-29T18:07:57;7.90;99.90
21481;DHT22;10902;48.158;8.634;2022-12-29T18:10:25;7.80;99.90
21481;DHT22;10902;48.158;8.634;2022-12-29T18:12:53;7.70;99.90
21481;DHT22;10902;48.158;8.634;2022-12-29T18:15:25;7.70;99.90
21481;DHT22;10902;48.158;8.634;2022-12-29T18:18:12;7.70;99.90
21481;DHT22;10902;48.158;8.634;2022-12-29T18:20:39;7.70;99.90
21481;DHT22;10902;48.158;8.634;2022-12-29T18:23:06;7.60;99.90
21481;DHT22;10902;48.158;8.634;2022-12-29T18:25:48;7.60;99.90
21481;DHT22;10902;48.158;8.634;2022-12-29T18:28:14;7.60;99.90
21481;DHT22;10902;48.158;8.634;2022-12-29T18:30:40;7.50;99.90
21481;DHT22;10902;48.158;8.634;2022-12-29T18:33:05;7.50;99.90
21481;DHT22;10902;48.158;8.634;2022-12-29T18:35:41;7.40;99.90
21481;DHT22;10902;48.158;8.634;2022-12-29T18:38:07;7.40;99.90
21481;DHT22;10902;48.158;8.634;2022-12-29T18:40:33;7.40;99.90
21481;DHT22;10902;48.158;8.634;2022-12-29T18:43:00;7.40;99.90
21481;DHT22;10902;48.158;8.634;2022-12-29T18:45:26;7.30;99.90
21481;DHT22;10902;48.158;8.634;2022-12-29T18:47:52;7.30;99.90
21481;DHT22;10902;48.158;8.634;2022-12-29T18:50:18;7.30;99.90
21481;DHT22;10902;48.158;8.634;2022-12-29T18:52:44;7.20;99.90
21481;DHT22;10902;48.158;8.634;2022-12-29T18:55:15;7.20;99.90
21481;DHT22;10902;48.158;8.634;2022-12-29T18:57:42;7.20;99.90
21481;DHT22;10902;48.158;8.634;2022-12-29T19:00:08;7.20;99.90
21481;DHT22;10902;48.158;8.634;2022-12-29T19:02:34;7.20;99.90
21481;DHT22;10902;48.158;8.634;2022-12-29T19:05:00;7.20;99.90
21481;DHT22;10902;48.158;8.634;2022-12-29T19:07:26;7.20;99.90
21481;DHT22;10902;48.158;8.634;2022-12-29T19:09:52;7.20;99.90
21481;DHT22;10902;48.158;8.634;2022-12-29T19:12:17;7.20;99.90
21481;DHT22;10902;48.158;8.634;2022-12-29T19:14:43;7.20;99.90
21481;DHT22;10902;48.158;8.634;2022-12-29T19:17:12;7.20;99.90
21481;DHT22;10902;48.158;8.634;2022-12-29T19:19:39;7.20;99.90
21481;DHT22;10902;48.158;8.634;2022-12-29T19:22:05;7.20;99.90
21481;DHT22;10902;48.158;8.634;2022-12-29T19:24:30;7.20;99.90
21481;DHT22;10902;48.158;8.634;2022-12-29T19:26:56;7.10;99.90
21481;DHT22;10902;48.158;8.634;2022-12-29T19:29:22;7.10;99.90
21481;DHT22;10902;48.158;8.634;2022-12-29T19:31:47;7.10;99.90
21481;DHT22;10902;48.158;8.634;2022-12-29T19:34:14;7.10;99.90
21481;DHT22;10902;48.158;8.634;2022-12-29T19:36:40;7.10;99.90
21481;DHT22;10902;48.158;8.634;2022-12-29T19:39:06;7.00;99.90
21481;DHT22;10902;48.158;8.634;2022-12-29T19:41:31;7.00;99.90
21481;DHT22;10902;48.158;8.634;2022-12-29T19:43:57;7.00;99.90
21481;DHT22;10902;48.158;8.634;2022-12-29T19:46:23;7.10;99.90
21481;DHT22;10902;48.158;8.634;2022-12-29T19:48:50;7.10;99.90
21481;DHT22;10902;48.158;8.634;2022-12-29T19:51:16;7.10;99.90
21481;DHT22;10902;48.158;8.634;2022-12-29T19:53:43;7.10;99.90
21481;DHT22;10902;48.158;8.634;2022-12-29T19:56:09;7.10;99.90
21481;DHT22;10902;48.158;8.634;2022-12-29T19:58:36;7.10;99.90